Time;durP1;ratioP1;P1;durP2;ratioP2;P2;SDS_P1;SDS_P2;PMS_P1;PMS_P2;Temp;Humidity;BMP_temperature;BMP_pressure;BME280_temperature;BME280_humidity;BME280_pressure;Samples;Min_cycle;Max_cycle;Signal;HPM_P1;HPM_P2
2021/07/14 00:01:54;;;;;;;3.57;1.80;;;21.90;60.00;;;;;;4946306;28;20809;-51
2021/07/14 00:04:20;;;;;;;3.10;1.60;;;21.90;60.10;;;;;;4950294;28;20447;-47
2021/07/14 00:06:45;;;;;;;3.83;2.00;;;21.90;60.50;;;;;;4946836;28;20196;-48
2021/07/14 00:09:11;;;;;;;2.63;1.87;;;21.80;60.50;;;;;;4948286;28;20285;-53
2021/07/14 00:11:43;;;;;;;2.73;1.80;;;21.80;60.60;;;;;;4950912;28;20192;-49
2021/07/14 00:17:16;;;;;;;4.13;2.47;;;21.80;60.70;;;;;;4953918;28;20443;-50
2021/07/14 00:22:32;;;;;;;1.83;1.73;;;21.90;60.70;;;;;;4954243;28;21010;-50
2021/07/14 00:24:59;;;;;;;2.17;2.03;;;21.80;60.50;;;;;;4952024;29;20443;-46
2021/07/14 00:27:25;;;;;;;4.33;2.47;;;21.90;60.60;;;;;;4951898;28;20955;-51
2021/07/14 00:32:17;;;;;;;3.50;2.00;;;21.80;61.20;;;;;;4949502;28;20447;-50
2021/07/14 00:34:43;;;;;;;4.60;1.90;;;21.90;60.40;;;;;;4952796;28;20455;-51
2021/07/14 00:37:09;;;;;;;2.80;1.83;;;21.90;60.40;;;;;;4952194;28;20888;-52
2021/07/14 00:39:35;;;;;;;3.00;2.10;;;21.90;60.20;;;;;;4954047;28;20999;-48
2021/07/14 00:42:00;;;;;;;4.90;2.27;;;21.90;60.10;;;;;;4952817;28;20447;-47
2021/07/14 00:44:26;;;;;;;2.00;1.90;;;21.90;60.10;;;;;;4954415;28;20463;-47
2021/07/14 00:46:52;;;;;;;6.23;2.40;;;21.80;60.00;;;;;;4953656;28;20207;-52
2021/07/14 00:49:18;;;;;;;5.03;2.27;;;21.80;60.10;;;;;;4949727;28;20288;-48
2021/07/14 00:51:46;;;;;;;2.23;2.03;;;21.80;60.10;;;;;;4950996;28;20444;-50
2021/07/14 00:54:11;;;;;;;2.90;2.13;;;21.80;60.20;;;;;;4946780;28;20452;-47
2021/07/14 00:56:38;;;;;;;3.73;2.00;;;21.80;60.50;;;;;;4944405;28;20498;-50
2021/07/14 00:59:04;;;;;;;3.00;1.97;;;21.70;60.20;;;;;;4947438;28;20756;-50
2021/07/14 01:01:31;;;;;;;2.33;1.63;;;21.80;60.20;;;;;;4946553;28;20440;-47
2021/07/14 01:04:14;;;;;;;2.40;2.10;;;21.70;60.10;;;;;;4950709;28;20202;-49
2021/07/14 01:06:47;;;;;;;2.40;1.80;;;21.80;59.90;;;;;;4951888;28;20506;-51
2021/07/14 01:09:17;;;;;;;4.93;2.17;;;21.70;59.60;;;;;;4932045;28;20970;-52
2021/07/14 01:11:44;;;;;;;2.13;2.03;;;21.50;59.90;;;;;;4944478;28;20455;-51
2021/07/14 01:14:22;;;;;;;3.73;2.27;;;21.10;61.50;;;;;;4946321;28;20459;-47
2021/07/14 01:16:54;;;;;;;2.40;1.83;;;20.90;62.70;;;;;;4947700;28;20445;-50
2021/07/14 01:19:40;;;;;;;2.40;2.20;;;20.70;63.50;;;;;;4952129;28;20526;-49
2021/07/14 01:22:22;;;;;;;2.30;2.10;;;20.70;63.80;;;;;;4954339;28;20567;-48
2021/07/14 01:25:06;;;;;;;3.90;2.30;;;20.80;63.80;;;;;;4946960;28;20459;-52
2021/07/14 01:27:36;;;;;;;4.53;2.07;;;20.90;63.40;;;;;;4946846;28;20458;-51
2021/07/14 01:30:07;;;;;;;3.67;2.03;;;20.90;63.70;;;;;;4950624;28;20495;-51
2021/07/14 01:32:35;;;;;;;3.73;2.50;;;20.90;63.30;;;;;;4949977;28;20550;-47
2021/07/14 01:35:06;;;;;;;4.33;2.43;;;20.90;63.20;;;;;;4945316;28;20523;-48
2021/07/14 01:37:33;;;;;;;2.23;2.00;;;20.80;62.90;;;;;;4945156;28;20526;-47
2021/07/14 01:40:01;;;;;;;3.43;2.40;;;20.80;63.30;;;;;;4947576;28;20449;-48
2021/07/14 01:42:30;;;;;;;2.07;1.73;;;20.80;63.60;;;;;;4940940;29;20457;-52
2021/07/14 01:44:57;;;;;;;2.10;1.90;;;20.80;63.50;;;;;;4947162;28;20931;-50
2021/07/14 01:47:24;;;;;;;2.07;1.97;;;20.80;63.50;;;;;;4950372;28;20979;-52
2021/07/14 01:49:52;;;;;;;2.90;1.93;;;20.80;63.50;;;;;;4950085;28;20586;-51
2021/07/14 01:52:19;;;;;;;2.20;2.00;;;20.70;63.90;;;;;;4944439;28;20531;-51
2021/07/14 01:54:48;;;;;;;5.60;2.00;;;20.70;65.10;;;;;;4948066;28;20519;-47
2021/07/14 01:57:14;;;;;;;2.37;2.17;;;20.40;65.50;;;;;;4943521;28;20444;-50
2021/07/14 01:59:42;;;;;;;8.23;1.87;;;20.40;65.80;;;;;;4948376;28;20456;-53
2021/07/14 02:02:10;;;;;;;2.83;2.63;;;20.10;66.70;;;;;;4947437;28;20568;-51
2021/07/14 02:04:38;;;;;;;2.17;1.80;;;20.00;67.30;;;;;;4946857;28;21103;-52
2021/07/14 02:07:10;;;;;;;2.50;2.23;;;19.90;68.60;;;;;;4946454;28;20444;-52
2021/07/14 02:09:38;;;;;;;3.00;2.43;;;20.20;68.50;;;;;;4948282;28;20498;-48
2021/07/14 02:12:08;;;;;;;9.87;2.80;;;20.50;67.80;;;;;;4949615;28;20478;-50
2021/07/14 02:14:50;;;;;;;2.40;2.20;;;20.80;67.60;;;;;;4945272;28;20498;-47
2021/07/14 02:17:18;;;;;;;5.53;1.53;;;21.10;66.00;;;;;;4947205;28;20549;-48
2021/07/14 02:20:04;;;;;;;2.07;1.87;;;21.30;67.10;;;;;;4947564;28;20813;-47
2021/07/14 02:22:30;;;;;;;3.10;1.90;;;21.60;66.20;;;;;;4949751;28;20454;-51
2021/07/14 02:24:56;;;;;;;5.33;1.97;;;21.80;65.40;;;;;;4950194;28;21288;-50
2021/07/14 02:27:22;;;;;;;2.07;1.90;;;21.90;64.80;;;;;;4950611;28;20607;-52
2021/07/14 02:29:48;;;;;;;1.90;1.50;;;22.10;64.20;;;;;;4949975;28;20538;-50
2021/07/14 02:32:17;;;;;;;1.80;1.70;;;22.30;63.80;;;;;;4949463;28;20223;-53
2021/07/14 02:34:48;;;;;;;3.10;1.70;;;22.40;63.50;;;;;;4949471;28;20554;-50
2021/07/14 02:37:24;;;;;;;3.23;1.67;;;22.50;62.50;;;;;;4947293;28;20447;-53
2021/07/14 02:39:52;;;;;;;3.00;1.60;;;22.60;62.20;;;;;;4946337;28;20451;-46
2021/07/14 02:42:28;;;;;;;1.83;1.70;;;22.70;62.20;;;;;;4949616;28;20451;-52
2021/07/14 02:44:56;;;;;;;2.60;1.90;;;22.80;61.60;;;;;;4951074;28;20989;-51
2021/07/14 02:47:22;;;;;;;1.50;1.40;;;22.80;61.00;;;;;;4945686;28;20502;-47
2021/07/14 02:49:48;;;;;;;1.97;1.77;;;22.80;60.70;;;;;;4948205;28;20487;-52
2021/07/14 02:52:15;;;;;;;5.20;2.47;;;22.90;61.20;;;;;;4947235;29;20474;-53
2021/07/14 02:54:44;;;;;;;2.30;2.10;;;22.90;59.90;;;;;;4940933;28;20947;-51
2021/07/14 02:57:14;;;;;;;1.63;1.53;;;22.80;60.50;;;;;;4944403;28;20512;-51
2021/07/14 02:59:44;;;;;;;2.40;2.20;;;22.90;60.70;;;;;;4947941;28;20440;-52
2021/07/14 03:02:10;;;;;;;2.47;2.27;;;22.90;60.60;;;;;;4949091;28;20439;-51
2021/07/14 03:04:40;;;;;;;1.83;1.70;;;22.90;59.80;;;;;;4947476;28;21146;-46
2021/07/14 03:07:10;;;;;;;2.07;1.50;;;23.00;59.80;;;;;;4946040;28;20811;-47
2021/07/14 03:09:39;;;;;;;5.43;2.10;;;23.00;59.80;;;;;;4944182;28;20494;-49
2021/07/14 03:12:11;;;;;;;2.00;1.83;;;23.00;59.70;;;;;;4948187;28;20995;-51
2021/07/14 03:14:43;;;;;;;2.30;1.57;;;23.00;59.90;;;;;;4951108;28;20504;-47
2021/07/14 03:17:11;;;;;;;6.03;2.60;;;23.10;59.90;;;;;;4949374;28;20822;-51
2021/07/14 03:19:37;;;;;;;2.90;1.73;;;23.10;58.90;;;;;;4944775;28;20931;-51
2021/07/14 03:22:04;;;;;;;3.77;2.17;;;23.10;58.80;;;;;;4945287;28;20630;-52
2021/07/14 03:24:30;;;;;;;3.57;2.10;;;23.10;59.20;;;;;;4943556;28;20447;-51
2021/07/14 03:26:57;;;;;;;8.10;2.07;;;23.10;59.00;;;;;;4948931;28;20575;-52
2021/07/14 03:29:24;;;;;;;2.73;2.00;;;23.10;59.30;;;;;;4946569;28;20852;-47
2021/07/14 03:31:50;;;;;;;2.87;2.00;;;23.10;59.00;;;;;;4949350;28;20955;-51
2021/07/14 03:34:16;;;;;;;2.00;1.80;;;22.90;57.50;;;;;;4946095;28;20816;-47
2021/07/14 03:36:43;;;;;;;2.17;2.07;;;22.40;59.00;;;;;;4947221;28;20440;-50
2021/07/14 03:39:10;;;;;;;2.63;1.80;;;22.30;59.10;;;;;;4946137;28;20204;-50
2021/07/14 03:41:38;;;;;;;3.30;2.07;;;22.20;61.30;;;;;;4950705;28;20443;-49
2021/07/14 03:44:05;;;;;;;4.93;2.00;;;22.50;61.10;;;;;;4949577;28;20534;-49
2021/07/14 03:46:31;;;;;;;1.93;1.80;;;22.60;60.60;;;;;;4939153;28;20560;-48
2021/07/14 03:48:57;;;;;;;5.30;1.90;;;22.80;59.70;;;;;;4947071;28;20483;-52
2021/07/14 03:51:24;;;;;;;4.57;2.47;;;22.80;59.90;;;;;;4949957;28;20888;-52
2021/07/14 03:53:51;;;;;;;4.73;2.07;;;22.90;59.40;;;;;;4949127;28;21062;-51
2021/07/14 03:56:21;;;;;;;6.57;1.60;;;23.00;59.20;;;;;;4940959;28;20506;-52
2021/07/14 03:58:47;;;;;;;2.60;2.40;;;23.00;59.20;;;;;;4949080;28;21030;-51
2021/07/14 04:01:13;;;;;;;3.23;2.40;;;23.00;59.10;;;;;;4948463;28;20842;-51
2021/07/14 04:03:39;;;;;;;2.70;1.80;;;23.00;58.20;;;;;;4950560;28;20459;-48
2021/07/14 04:06:07;;;;;;;2.37;1.77;;;22.70;59.10;;;;;;4944732;28;20444;-52
2021/07/14 04:08:39;;;;;;;3.33;2.00;;;22.70;59.60;;;;;;4944941;29;20474;-50
2021/07/14 04:11:06;;;;;;;3.37;2.50;;;22.70;59.80;;;;;;4950070;28;20498;-51
2021/07/14 04:13:32;;;;;;;2.20;1.90;;;22.70;57.70;;;;;;4942014;28;20470;-53
2021/07/14 04:15:58;;;;;;;2.37;1.80;;;22.70;59.20;;;;;;4936286;28;20502;-51
2021/07/14 04:18:23;;;;;;;3.20;1.93;;;22.70;59.70;;;;;;4948788;28;20478;-50
2021/07/14 04:20:49;;;;;;;1.93;1.73;;;22.80;59.70;;;;;;4950161;28;20200;-51
2021/07/14 04:23:15;;;;;;;2.43;1.67;;;22.90;59.30;;;;;;4942020;28;20958;-51
2021/07/14 04:25:40;;;;;;;10.23;2.20;;;22.90;59.10;;;;;;4950761;28;20199;-52
2021/07/14 04:28:06;;;;;;;5.73;1.83;;;22.90;59.20;;;;;;4951502;28;20227;-52
2021/07/14 04:30:33;;;;;;;3.30;2.00;;;23.00;59.10;;;;;;4949244;28;20643;-47
2021/07/14 04:32:59;;;;;;;2.73;2.20;;;23.10;59.00;;;;;;4945945;28;20198;-52
2021/07/14 04:35:24;;;;;;;4.10;2.07;;;23.10;58.60;;;;;;4944215;28;20535;-50
2021/07/14 04:37:50;;;;;;;2.83;1.93;;;23.20;58.50;;;;;;4950825;28;20640;-52
2021/07/14 04:40:17;;;;;;;2.40;2.20;;;23.20;58.40;;;;;;4955154;28;20196;-51
2021/07/14 04:42:43;;;;;;;2.00;1.77;;;23.20;58.40;;;;;;4953328;28;20200;-52
2021/07/14 04:45:09;;;;;;;1.93;1.83;;;23.20;58.60;;;;;;4950382;28;20502;-48
2021/07/14 04:47:35;;;;;;;3.77;2.33;;;23.30;58.20;;;;;;4954654;29;20259;-48
2021/07/14 04:50:00;;;;;;;3.17;2.20;;;23.30;57.90;;;;;;4954057;28;20491;-52
2021/07/14 04:52:26;;;;;;;2.60;1.77;;;23.30;57.70;;;;;;4951104;28;20283;-50
2021/07/14 04:54:51;;;;;;;1.70;1.60;;;23.30;57.80;;;;;;4955201;28;20192;-49
2021/07/14 04:57:17;;;;;;;2.17;2.07;;;23.30;57.90;;;;;;4954209;28;20196;-48
2021/07/14 04:59:42;;;;;;;3.20;1.90;;;23.30;57.50;;;;;;4949920;28;20279;-52
2021/07/14 05:02:08;;;;;;;2.13;2.03;;;23.30;57.30;;;;;;4937232;28;20680;-52
2021/07/14 05:04:34;;;;;;;2.53;2.20;;;23.30;57.30;;;;;;4948624;28;20226;-51
2021/07/14 05:07:01;;;;;;;7.60;2.00;;;23.30;57.70;;;;;;4947538;28;20649;-47
2021/07/14 05:09:27;;;;;;;3.57;2.07;;;23.20;58.30;;;;;;4948780;28;20501;-51
2021/07/14 05:11:53;;;;;;;3.07;2.00;;;23.30;58.20;;;;;;4947876;28;20456;-52
2021/07/14 05:14:20;;;;;;;2.27;1.93;;;23.30;58.00;;;;;;4949522;28;20915;-53
2021/07/14 05:16:45;;;;;;;2.00;1.77;;;23.40;57.80;;;;;;4949470;28;20196;-52
2021/07/14 05:19:14;;;;;;;2.00;1.87;;;23.40;57.50;;;;;;4953145;28;20942;-51
2021/07/14 05:21:40;;;;;;;1.80;1.70;;;23.50;56.90;;;;;;4947989;28;20287;-53
2021/07/14 05:24:06;;;;;;;3.83;2.00;;;23.50;56.80;;;;;;4950099;28;20575;-51
2021/07/14 05:26:32;;;;;;;2.20;2.00;;;23.40;55.70;;;;;;4946443;28;21053;-51
2021/07/14 05:28:57;;;;;;;3.43;1.70;;;23.20;58.00;;;;;;4948224;28;20227;-52
2021/07/14 05:31:23;;;;;;;5.30;1.90;;;23.30;57.40;;;;;;4949463;28;20235;-50
2021/07/14 05:33:48;;;;;;;3.33;2.20;;;23.30;56.50;;;;;;4952362;28;20610;-51
2021/07/14 05:36:14;;;;;;;7.30;2.37;;;23.20;55.80;;;;;;4950020;28;20227;-52
2021/07/14 05:38:41;;;;;;;3.87;2.20;;;23.20;56.10;;;;;;4946696;28;20204;-51
2021/07/14 05:41:08;;;;;;;5.23;2.30;;;23.10;55.90;;;;;;4951788;28;20270;-52
2021/07/14 05:43:34;;;;;;;5.90;2.30;;;23.20;56.20;;;;;;4946328;28;20805;-52
2021/07/14 05:46:00;;;;;;;3.63;2.37;;;23.10;56.00;;;;;;4946881;28;20448;-52
2021/07/14 05:48:25;;;;;;;4.20;1.87;;;23.00;56.60;;;;;;4951632;28;20279;-52
2021/07/14 05:50:51;;;;;;;3.03;2.13;;;23.10;56.40;;;;;;4952381;29;20203;-50
2021/07/14 05:53:17;;;;;;;3.20;2.13;;;23.00;56.40;;;;;;4954581;29;20207;-51
2021/07/14 05:55:42;;;;;;;3.67;2.30;;;23.00;56.40;;;;;;4948248;29;20203;-53
2021/07/14 05:58:10;;;;;;;2.73;2.53;;;23.00;56.40;;;;;;4954096;29;20204;-53
2021/07/14 06:00:37;;;;;;;2.83;2.27;;;23.10;56.40;;;;;;4946142;29;20251;-51
2021/07/14 06:03:04;;;;;;;2.70;2.50;;;23.10;56.40;;;;;;4952599;28;20447;-52
2021/07/14 06:05:30;;;;;;;4.13;2.70;;;23.00;55.90;;;;;;4953520;29;20442;-52
2021/07/14 06:07:55;;;;;;;3.43;2.07;;;23.00;56.60;;;;;;4950484;29;20458;-50
2021/07/14 06:10:21;;;;;;;3.20;2.87;;;22.90;56.70;;;;;;4949442;29;20240;-51
2021/07/14 06:12:46;;;;;;;4.27;2.30;;;22.90;56.60;;;;;;4953404;29;20192;-52
2021/07/14 06:15:12;;;;;;;5.63;2.70;;;22.90;56.80;;;;;;4948978;29;20193;-53
2021/07/14 06:17:37;;;;;;;3.20;2.77;;;23.00;56.90;;;;;;4952768;29;20874;-53
2021/07/14 06:20:07;;;;;;;2.73;2.27;;;23.00;56.90;;;;;;4953610;28;20274;-50
2021/07/14 06:22:33;;;;;;;3.17;2.70;;;22.90;57.00;;;;;;4949021;28;20196;-51
2021/07/14 06:24:59;;;;;;;4.07;2.73;;;23.00;57.60;;;;;;4951391;29;20443;-51
2021/07/14 06:27:25;;;;;;;4.03;2.50;;;22.90;57.00;;;;;;4954527;29;20204;-53
2021/07/14 06:29:50;;;;;;;4.83;2.50;;;22.90;57.00;;;;;;4952308;29;20242;-50
2021/07/14 06:32:16;;;;;;;3.53;2.80;;;23.00;57.00;;;;;;4953244;29;20250;-52
2021/07/14 06:34:41;;;;;;;3.17;2.40;;;23.00;56.60;;;;;;4934478;29;20302;-50
2021/07/14 06:37:08;;;;;;;4.33;2.50;;;22.90;57.10;;;;;;4951404;29;20192;-48
2021/07/14 06:39:33;;;;;;;3.40;3.10;;;22.80;57.50;;;;;;4953370;29;20567;-49
2021/07/14 06:41:59;;;;;;;6.90;2.80;;;22.80;57.40;;;;;;4946237;29;20443;-55
2021/07/14 06:44:25;;;;;;;2.90;2.33;;;22.90;57.40;;;;;;4948837;29;20200;-49
2021/07/14 06:46:51;;;;;;;4.83;2.40;;;23.00;57.20;;;;;;4953187;28;20451;-50
2021/07/14 06:49:17;;;;;;;9.10;3.30;;;23.00;57.00;;;;;;4942864;29;20495;-52
2021/07/14 06:51:42;;;;;;;3.30;2.57;;;22.90;56.80;;;;;;4949307;29;20200;-49
2021/07/14 06:54:08;;;;;;;4.83;2.57;;;22.90;56.90;;;;;;4953137;29;20196;-49
2021/07/14 06:56:34;;;;;;;3.10;2.80;;;22.90;57.00;;;;;;4950543;28;20199;-52
2021/07/14 06:59:00;;;;;;;5.50;2.80;;;22.90;56.90;;;;;;4940946;29;20443;-52
2021/07/14 07:01:26;;;;;;;2.97;2.77;;;22.90;57.00;;;;;;4953132;28;20226;-49
2021/07/14 07:03:51;;;;;;;3.50;2.60;;;22.90;56.90;;;;;;4950252;29;20240;-50
2021/07/14 07:06:17;;;;;;;3.20;2.80;;;22.80;56.80;;;;;;4951822;28;20618;-49
2021/07/14 07:08:42;;;;;;;2.83;2.63;;;22.70;56.90;;;;;;4948744;28;20230;-52
2021/07/14 07:11:08;;;;;;;6.43;2.70;;;22.60;57.30;;;;;;4951372;29;20283;-52
2021/07/14 07:13:34;;;;;;;3.10;2.80;;;22.50;57.50;;;;;;4953257;28;20202;-50
2021/07/14 07:16:01;;;;;;;3.60;2.70;;;22.40;57.40;;;;;;4951479;29;20199;-52
2021/07/14 07:18:27;;;;;;;2.80;2.60;;;22.30;57.50;;;;;;4948563;28;20235;-53
2021/07/14 07:20:54;;;;;;;3.10;2.13;;;22.10;58.20;;;;;;4946887;28;20447;-50
2021/07/14 07:23:20;;;;;;;5.00;2.27;;;22.10;58.40;;;;;;4948263;29;20601;-49
2021/07/14 07:25:45;;;;;;;7.27;2.53;;;22.20;58.10;;;;;;4948887;29;20435;-48
2021/07/14 07:28:14;;;;;;;5.83;2.70;;;22.20;58.10;;;;;;4951346;29;20542;-47
2021/07/14 07:30:40;;;;;;;3.83;2.50;;;22.30;58.20;;;;;;4947998;29;20249;-47
2021/07/14 07:33:06;;;;;;;2.80;2.50;;;22.40;58.10;;;;;;4950426;29;20862;-46
2021/07/14 07:35:32;;;;;;;2.93;2.67;;;22.40;57.90;;;;;;4950475;28;20514;-46
2021/07/14 07:37:57;;;;;;;2.40;2.30;;;22.40;57.60;;;;;;4951112;28;20208;-51
2021/07/14 07:40:23;;;;;;;2.43;2.30;;;22.40;57.90;;;;;;4949439;29;20196;-48
2021/07/14 07:42:49;;;;;;;3.10;2.80;;;22.30;57.50;;;;;;4950543;28;20262;-49
2021/07/14 07:45:15;;;;;;;5.83;2.33;;;22.20;57.70;;;;;;4951793;29;20199;-48
2021/07/14 07:47:40;;;;;;;5.23;2.63;;;22.10;58.10;;;;;;4946258;29;20451;-47
2021/07/14 07:50:08;;;;;;;6.37;2.70;;;22.10;58.10;;;;;;4949242;28;20680;-47
2021/07/14 07:52:33;;;;;;;6.87;2.80;;;22.00;58.20;;;;;;4944282;29;20699;-46
2021/07/14 07:55:00;;;;;;;3.13;2.80;;;22.10;58.30;;;;;;4940142;29;20436;-50
2021/07/14 07:57:28;;;;;;;3.13;2.90;;;22.10;58.80;;;;;;4948908;29;20207;-47
2021/07/14 07:59:54;;;;;;;3.70;3.10;;;21.90;58.70;;;;;;4950389;29;20439;-48
2021/07/14 08:02:19;;;;;;;4.73;4.23;;;22.00;58.90;;;;;;4938769;28;20435;-47
2021/07/14 08:04:45;;;;;;;4.03;2.83;;;22.10;58.80;;;;;;4952633;29;20939;-47
2021/07/14 08:07:10;;;;;;;3.00;2.70;;;22.20;58.80;;;;;;4950981;28;20230;-48
2021/07/14 08:09:37;;;;;;;2.93;2.73;;;22.20;58.80;;;;;;4951427;28;20230;-47
2021/07/14 08:12:04;;;;;;;3.60;3.30;;;22.30;59.00;;;;;;4953645;28;20214;-47
2021/07/14 08:14:29;;;;;;;3.10;2.90;;;22.20;59.00;;;;;;4954638;28;20435;-50
2021/07/14 08:16:55;;;;;;;3.70;3.13;;;22.20;59.30;;;;;;4953264;29;20470;-47
2021/07/14 08:19:21;;;;;;;4.50;3.10;;;22.00;59.20;;;;;;4949276;28;20192;-46
2021/07/14 08:21:48;;;;;;;2.97;2.77;;;22.00;60.00;;;;;;4948606;29;20228;-47
2021/07/14 08:24:13;;;;;;;5.50;3.33;;;22.00;59.90;;;;;;4948661;29;20522;-47
2021/07/14 08:26:39;;;;;;;7.77;3.70;;;22.20;59.90;;;;;;4951186;28;20207;-47
2021/07/14 08:29:05;;;;;;;3.60;3.30;;;22.20;59.70;;;;;;4954430;29;20230;-47
2021/07/14 08:31:30;;;;;;;4.37;3.33;;;22.20;59.50;;;;;;4953398;28;20607;-47
2021/07/14 08:33:56;;;;;;;5.53;3.30;;;22.20;60.00;;;;;;4956072;29;20227;-48
2021/07/14 08:36:25;;;;;;;3.93;3.20;;;22.00;59.90;;;;;;4951083;28;20224;-46
2021/07/14 08:38:51;;;;;;;3.53;3.10;;;22.00;60.30;;;;;;4952231;28;20542;-46
2021/07/14 08:41:19;;;;;;;4.87;3.30;;;22.10;60.60;;;;;;4952043;29;20498;-46
2021/07/14 08:43:45;;;;;;;3.40;3.20;;;22.10;60.70;;;;;;4950027;29;21208;-47
2021/07/14 08:46:11;;;;;;;6.67;3.53;;;22.00;61.20;;;;;;4953085;28;20442;-48
2021/07/14 08:48:38;;;;;;;4.73;3.03;;;21.90;61.80;;;;;;4952866;29;20452;-47
2021/07/14 08:51:04;;;;;;;8.23;3.43;;;21.80;62.20;;;;;;4952727;29;20526;-47
2021/07/14 08:53:30;;;;;;;4.67;2.63;;;21.80;62.50;;;;;;4954834;28;20785;-45
2021/07/14 08:55:58;;;;;;;3.40;3.10;;;21.60;62.70;;;;;;4946456;29;20453;-44
2021/07/14 08:58:26;;;;;;;2.97;2.77;;;21.60;63.20;;;;;;4944758;29;20543;-46
2021/07/14 09:00:57;;;;;;;5.40;3.30;;;21.70;63.20;;;;;;4951592;29;20455;-47
2021/07/14 09:03:24;;;;;;;3.30;3.07;;;21.80;63.60;;;;;;4950003;29;20458;-47
2021/07/14 09:05:50;;;;;;;4.23;3.83;;;21.80;63.70;;;;;;4951124;28;21010;-44
2021/07/14 09:08:16;;;;;;;3.53;3.23;;;21.40;64.50;;;;;;4952364;28;20534;-45
2021/07/14 09:10:45;;;;;;;5.73;3.60;;;21.40;65.80;;;;;;4949402;28;20223;-45
2021/07/14 09:13:12;;;;;;;7.60;3.90;;;21.30;65.60;;;;;;4950818;29;20192;-45
2021/07/14 09:15:41;;;;;;;3.50;3.20;;;21.40;65.90;;;;;;4955806;28;20435;-46
2021/07/14 09:18:07;;;;;;;5.43;3.90;;;21.40;65.40;;;;;;4952588;28;21043;-45
2021/07/14 09:20:34;;;;;;;3.40;3.10;;;21.50;64.70;;;;;;4948373;28;20466;-46
2021/07/14 09:23:18;;;;;;;5.63;3.63;;;21.60;64.80;;;;;;4954608;28;20440;-45
2021/07/14 09:25:46;;;;;;;3.20;3.00;;;21.70;64.70;;;;;;4949109;29;20451;-47
2021/07/14 09:28:13;;;;;;;5.63;3.43;;;21.80;64.20;;;;;;4954854;29;20440;-45
2021/07/14 09:30:40;;;;;;;7.47;3.40;;;21.90;63.80;;;;;;4953869;29;20586;-44
2021/07/14 09:33:12;;;;;;;12.10;3.87;;;21.90;63.50;;;;;;4954504;28;20523;-46
2021/07/14 09:35:47;;;;;;;3.20;2.90;;;22.00;63.70;;;;;;4951810;29;20444;-48
2021/07/14 09:38:23;;;;;;;4.20;3.07;;;22.10;63.70;;;;;;4952365;28;20447;-50
2021/07/14 09:40:59;;;;;;;6.63;4.10;;;22.20;63.50;;;;;;4951507;28;20455;-46
2021/07/14 09:43:39;;;;;;;4.03;3.73;;;22.20;62.60;;;;;;4949820;29;20447;-47
2021/07/14 09:46:07;;;;;;;5.03;3.20;;;22.00;64.50;;;;;;4948617;29;20474;-46
2021/07/14 09:48:38;;;;;;;3.93;3.10;;;22.20;64.30;;;;;;4951197;29;20534;-46
2021/07/14 09:51:09;;;;;;;4.50;3.53;;;22.20;63.10;;;;;;4946189;29;20455;-46
2021/07/14 09:53:37;;;;;;;3.40;3.10;;;21.90;62.80;;;;;;4953078;29;20447;-47
2021/07/14 09:56:17;;;;;;;4.00;3.20;;;21.80;64.30;;;;;;4951641;29;20439;-46
2021/07/14 09:58:43;;;;;;;6.07;3.40;;;21.90;65.30;;;;;;4947372;29;20450;-47
2021/07/14 10:01:17;;;;;;;3.90;3.17;;;21.70;65.20;;;;;;4951294;29;20448;-47
2021/07/14 10:03:50;;;;;;;3.50;3.20;;;21.80;65.30;;;;;;4950729;29;20451;-46
2021/07/14 10:06:17;;;;;;;9.83;4.90;;;21.50;65.20;;;;;;4942678;29;20538;-47
2021/07/14 10:08:45;;;;;;;4.63;3.40;;;21.10;67.70;;;;;;4944190;29;20480;-47
2021/07/14 10:11:13;;;;;;;6.23;3.50;;;21.30;67.20;;;;;;4948826;29;20943;-45
2021/07/14 10:13:40;;;;;;;3.73;3.43;;;21.30;66.70;;;;;;4945652;29;20443;-46
2021/07/14 10:16:06;;;;;;;6.70;3.50;;;21.10;67.70;;;;;;4952357;28;20482;-45
2021/07/14 10:18:32;;;;;;;8.50;6.00;;;21.20;67.80;;;;;;4951560;29;20472;-46
2021/07/14 10:21:03;;;;;;;7.00;3.53;;;21.40;67.90;;;;;;4949921;28;20444;-46
2021/07/14 10:23:30;;;;;;;10.07;4.27;;;21.80;67.90;;;;;;4951935;28;20568;-45
2021/07/14 10:25:59;;;;;;;4.60;3.80;;;22.20;66.20;;;;;;4952502;28;20439;-45
2021/07/14 10:28:27;;;;;;;3.90;3.60;;;22.50;63.30;;;;;;4951226;28;20440;-46
2021/07/14 10:30:53;;;;;;;5.80;4.77;;;22.60;64.30;;;;;;4951459;29;20427;-45
2021/07/14 10:33:20;;;;;;;29.93;10.63;;;22.40;63.30;;;;;;4951969;28;20970;-47
2021/07/14 10:35:51;;;;;;;3.87;3.37;;;22.60;63.70;;;;;;4950497;29;20454;-47
2021/07/14 10:38:22;;;;;;;29.13;9.90;;;23.10;60.10;;;;;;4950689;29;20809;-48
2021/07/14 10:40:50;;;;;;;3.90;3.50;;;23.50;60.70;;;;;;4946930;29;20483;-48
2021/07/14 10:43:23;;;;;;;5.73;2.90;;;23.90;59.60;;;;;;4950765;29;20518;-46
2021/07/14 10:45:50;;;;;;;7.30;3.83;;;24.00;57.20;;;;;;4952911;29;20483;-50
2021/07/14 10:48:21;;;;;;;6.90;4.50;;;24.20;56.70;;;;;;4945944;29;20524;-46
2021/07/14 10:50:48;;;;;;;5.07;4.00;;;24.30;57.00;;;;;;4951097;28;20509;-47
2021/07/14 10:53:16;;;;;;;7.77;3.47;;;24.50;56.60;;;;;;4952116;28;20506;-46
2021/07/14 10:55:44;;;;;;;4.50;3.20;;;24.70;55.90;;;;;;4945512;29;20444;-47
2021/07/14 10:58:14;;;;;;;5.53;3.00;;;24.80;55.20;;;;;;4949099;29;20442;-46
2021/07/14 11:00:41;;;;;;;4.50;3.50;;;24.80;54.80;;;;;;4951610;28;20431;-46
2021/07/14 11:03:40;;;;;;;3.20;3.00;;;24.80;55.50;;;;;;4950189;29;20907;-46
2021/07/14 11:06:08;;;;;;;6.73;4.50;;;24.80;54.40;;;;;;4947105;29;20448;-46
2021/07/14 11:08:37;;;;;;;7.93;4.00;;;25.00;54.90;;;;;;4948710;28;20910;-45
2021/07/14 11:11:03;;;;;;;7.53;4.40;;;25.00;54.20;;;;;;4943864;28;20927;-46
2021/07/14 11:13:33;;;;;;;7.23;4.30;;;25.20;54.60;;;;;;4949088;29;20527;-46
2021/07/14 11:16:23;;;;;;;4.90;2.80;;;25.30;55.30;;;;;;4944477;28;20199;-47
2021/07/14 11:19:05;;;;;;;3.80;2.90;;;25.50;54.50;;;;;;4946918;29;21009;-47
2021/07/14 11:21:45;;;;;;;3.20;2.90;;;25.50;53.90;;;;;;4949989;29;20464;-46
2021/07/14 11:24:11;;;;;;;5.17;3.57;;;25.40;53.50;;;;;;4953178;28;20475;-47
2021/07/14 11:26:37;;;;;;;6.90;4.30;;;25.40;53.90;;;;;;4946762;29;20471;-46
2021/07/14 11:29:11;;;;;;;5.10;3.90;;;25.50;54.20;;;;;;4952187;29;20232;-45
2021/07/14 11:31:44;;;;;;;7.40;3.70;;;25.70;54.70;;;;;;4950322;29;20243;-47
2021/07/14 11:34:29;;;;;;;2.53;2.33;;;26.00;53.90;;;;;;4932369;29;20820;-46
2021/07/14 11:36:55;;;;;;;5.70;3.37;;;26.10;51.40;;;;;;4951569;28;20444;-49
2021/07/14 11:39:30;;;;;;;4.17;2.67;;;26.10;51.70;;;;;;4951664;28;21322;-47
2021/07/14 11:42:16;;;;;;;5.43;2.43;;;25.70;50.00;;;;;;4946570;28;20206;-46
2021/07/14 11:44:41;;;;;;;2.50;2.30;;;25.80;50.70;;;;;;4964617;28;20938;-46
2021/07/14 11:47:33;;;;;;;4.30;2.80;;;25.90;51.00;;;;;;4950842;29;20518;-48
2021/07/14 11:49:58;;;;;;;3.20;2.40;;;26.00;51.40;;;;;;4951243;29;20239;-47
2021/07/14 11:52:44;;;;;;;2.73;2.37;;;26.10;50.10;;;;;;4950805;28;20809;-48
2021/07/14 11:55:24;;;;;;;2.30;2.10;;;26.10;50.40;;;;;;4944967;29;20330;-48
2021/07/14 11:57:56;;;;;;;3.57;2.27;;;26.00;50.30;;;;;;4952409;28;20510;-48
2021/07/14 12:00:33;;;;;;;4.07;2.10;;;26.10;50.70;;;;;;4950719;28;20432;-46
2021/07/14 12:03:05;;;;;;;2.73;2.30;;;25.90;49.60;;;;;;4945561;29;20924;-46
2021/07/14 12:05:35;;;;;;;2.63;2.43;;;26.10;50.80;;;;;;4939634;29;20827;-46
2021/07/14 12:08:08;;;;;;;1.93;1.83;;;26.20;50.20;;;;;;4944650;28;20432;-47
2021/07/14 12:10:33;;;;;;;3.40;2.00;;;26.40;49.90;;;;;;4944754;29;20503;-46
2021/07/14 12:13:00;;;;;;;4.63;2.17;;;26.40;49.10;;;;;;4947000;29;20448;-50
2021/07/14 12:15:26;;;;;;;2.10;2.00;;;26.50;50.00;;;;;;4942040;29;20228;-46
2021/07/14 12:17:51;;;;;;;2.50;2.20;;;26.70;48.90;;;;;;4949527;28;20924;-48
2021/07/14 12:20:17;;;;;;;2.00;1.90;;;26.80;48.00;;;;;;4946222;29;20196;-46
2021/07/14 12:22:42;;;;;;;2.17;1.97;;;26.80;47.60;;;;;;4949066;28;20211;-47
2021/07/14 12:25:12;;;;;;;3.40;1.63;;;27.00;46.80;;;;;;4946016;29;20205;-46
2021/07/14 12:27:40;;;;;;;1.83;1.73;;;26.90;45.70;;;;;;4951607;29;20199;-47
2021/07/14 12:30:08;;;;;;;1.93;1.70;;;27.10;46.50;;;;;;4945279;28;20499;-46
2021/07/14 12:32:40;;;;;;;2.43;1.60;;;26.90;47.10;;;;;;4947888;29;20451;-49
2021/07/14 12:35:16;;;;;;;2.20;1.90;;;27.20;46.70;;;;;;4945499;29;20491;-46
2021/07/14 12:37:50;;;;;;;1.97;1.63;;;27.20;44.40;;;;;;4950521;29;20511;-52
2021/07/14 12:40:22;;;;;;;5.80;1.60;;;27.10;44.90;;;;;;4950162;29;20440;-46
2021/07/14 12:42:48;;;;;;;1.33;1.27;;;26.90;44.70;;;;;;4947872;28;20842;-48
2021/07/14 12:45:31;;;;;;;1.57;1.47;;;26.80;45.30;;;;;;4949438;29;20483;-46
2021/07/14 12:48:02;;;;;;;1.80;1.33;;;26.90;44.80;;;;;;4948494;29;20443;-51
2021/07/14 12:50:28;;;;;;;2.70;1.50;;;26.80;44.60;;;;;;4952130;28;20499;-46
2021/07/14 12:52:56;;;;;;;1.50;1.07;;;26.60;43.60;;;;;;4941038;29;20482;-47
2021/07/14 12:55:22;;;;;;;1.37;1.27;;;26.60;43.80;;;;;;4951860;28;20424;-46
2021/07/14 12:57:49;;;;;;;1.70;1.60;;;26.70;43.90;;;;;;4946288;29;20956;-47
2021/07/14 13:00:18;;;;;;;1.43;1.33;;;26.80;45.80;;;;;;4934647;29;20519;-47